createdAt,value
2018-03-15T00:00:49.073Z,15.83
2018-03-15T00:03:22.139Z,15.60
2018-03-15T00:05:49.785Z,15.13
2018-03-15T00:08:17.417Z,15.23
2018-03-15T00:10:45.069Z,16.87
2018-03-15T00:13:12.679Z,17.03
2018-03-15T00:15:40.342Z,14.23
2018-03-15T00:18:07.969Z,15.17
2018-03-15T00:20:35.630Z,15.93
2018-03-15T00:23:03.236Z,14.37
2018-03-15T00:25:30.929Z,14.97
2018-03-15T00:27:58.545Z,16.40
2018-03-15T00:30:26.223Z,15.23
2018-03-15T00:32:53.902Z,16.37
2018-03-15T00:35:21.550Z,15.60
2018-03-15T00:37:49.165Z,16.97
2018-03-15T00:40:16.804Z,15.17
2018-03-15T00:42:44.476Z,15.30
2018-03-15T00:45:12.125Z,15.80
2018-03-15T00:47:39.796Z,13.83
2018-03-15T00:50:07.461Z,14.57
2018-03-15T00:52:35.085Z,14.70
2018-03-15T00:55:02.749Z,16.53
2018-03-15T00:57:30.354Z,14.57
2018-03-15T00:59:58.006Z,14.63
2018-03-15T01:02:25.624Z,15.70
2018-03-15T01:04:53.269Z,15.70
2018-03-15T01:07:20.874Z,15.57
2018-03-15T01:09:48.531Z,14.63
2018-03-15T01:12:16.156Z,16.60
2018-03-15T01:14:43.811Z,17.17
2018-03-15T01:17:11.583Z,14.40
2018-03-15T01:19:39.233Z,15.57
2018-03-15T01:22:06.835Z,14.83
2018-03-15T01:24:34.485Z,14.77
2018-03-15T01:27:02.096Z,15.23
2018-03-15T01:29:29.755Z,14.63
2018-03-15T01:31:57.352Z,14.40
2018-03-15T01:34:25.016Z,15.70
2018-03-15T01:36:52.628Z,14.53
2018-03-15T01:39:20.306Z,14.77
2018-03-15T01:41:47.906Z,14.80
2018-03-15T01:44:15.552Z,13.70
2018-03-15T01:46:43.185Z,14.30
2018-03-15T01:49:10.892Z,15.20
2018-03-15T01:51:38.500Z,14.20
2018-03-15T01:54:06.104Z,13.97
2018-03-15T01:56:33.747Z,13.90
2018-03-15T01:59:01.352Z,12.70
2018-03-15T02:01:28.993Z,9.90
2018-03-15T02:03:56.603Z,13.53
2018-03-15T02:06:24.291Z,15.43
2018-03-15T02:08:51.922Z,14.23
2018-03-15T02:11:19.564Z,14.87
2018-03-15T02:13:47.178Z,12.27
2018-03-15T02:16:14.830Z,15.77
2018-03-15T02:18:42.432Z,14.67
2018-03-15T02:21:10.091Z,14.63
2018-03-15T02:23:37.704Z,12.27
2018-03-15T02:26:05.388Z,11.90
2018-03-15T02:28:33.000Z,9.37
2018-03-15T02:31:00.675Z,13.53
2018-03-15T02:33:28.278Z,13.10
2018-03-15T02:35:55.941Z,15.37
2018-03-15T02:38:23.576Z,14.40
2018-03-15T02:40:51.222Z,11.47
2018-03-15T02:43:18.829Z,13.47
2018-03-15T02:45:46.487Z,13.30
2018-03-15T02:48:14.100Z,7.80
2018-03-15T02:50:41.748Z,12.47
2018-03-15T02:53:09.389Z,14.47
2018-03-15T02:55:37.049Z,12.60
2018-03-15T02:58:04.668Z,13.90
2018-03-15T03:00:32.343Z,15.30
2018-03-15T03:02:59.960Z,13.70
2018-03-15T03:05:27.613Z,16.03
2018-03-15T03:07:55.746Z,14.90
2018-03-15T03:10:23.408Z,14.50
2018-03-15T03:12:51.020Z,14.63
2018-03-15T03:15:18.676Z,14.63
2018-03-15T03:17:46.276Z,14.97
2018-03-15T03:20:14.144Z,13.63
2018-03-15T03:22:41.773Z,14.70
2018-03-15T03:25:09.435Z,14.20
2018-03-15T03:27:37.037Z,14.80
2018-03-15T03:30:04.710Z,13.60
2018-03-15T03:32:32.311Z,14.30
2018-03-15T03:35:00.107Z,14.37
2018-03-15T03:37:27.733Z,14.67
2018-03-15T03:39:55.394Z,15.57
2018-03-15T03:42:23.027Z,14.30
2018-03-15T03:44:50.684Z,13.80
2018-03-15T03:47:18.316Z,15.50
2018-03-15T03:49:45.977Z,15.40
2018-03-15T03:52:13.588Z,13.60
2018-03-15T03:54:41.238Z,16.00
2018-03-15T03:57:08.857Z,12.20
2018-03-15T03:59:36.468Z,15.33
2018-03-15T04:02:04.120Z,13.90
2018-03-15T04:04:31.727Z,13.90
2018-03-15T04:06:59.376Z,14.17
2018-03-15T04:09:26.991Z,12.80
2018-03-15T04:11:54.641Z,11.70
2018-03-15T04:14:22.264Z,11.67
2018-03-15T04:16:49.928Z,13.60
2018-03-15T04:19:17.532Z,11.47
2018-03-15T04:21:45.252Z,14.90
2018-03-15T04:24:12.861Z,9.47
2018-03-15T04:26:40.500Z,12.70
2018-03-15T04:29:08.115Z,11.30
2018-03-15T04:31:35.764Z,9.33
2018-03-15T04:34:03.389Z,13.27
2018-03-15T04:36:31.040Z,11.60
2018-03-15T04:38:58.665Z,8.60
2018-03-15T04:41:26.305Z,9.50
2018-03-15T04:43:53.929Z,13.73
2018-03-15T04:46:21.575Z,12.63
2018-03-15T04:48:49.187Z,12.50
2018-03-15T04:51:16.837Z,12.40
2018-03-15T04:53:44.440Z,11.90
2018-03-15T04:56:12.092Z,10.13
2018-03-15T04:58:39.717Z,8.47
2018-03-15T05:01:07.384Z,12.53
2018-03-15T05:03:35.007Z,8.57
2018-03-15T05:06:02.651Z,11.73
2018-03-15T05:08:30.268Z,11.93
2018-03-15T05:10:57.924Z,11.40
2018-03-15T05:13:25.552Z,11.90
2018-03-15T05:15:53.195Z,12.07
2018-03-15T05:18:20.797Z,12.27
2018-03-15T05:20:48.457Z,10.73
2018-03-15T05:23:16.182Z,16.80
2018-03-15T05:25:43.820Z,8.90
2018-03-15T05:28:11.427Z,8.63
2018-03-15T05:30:39.084Z,7.17
2018-03-15T05:33:06.704Z,12.83
2018-03-15T05:35:34.375Z,13.70
2018-03-15T05:38:01.987Z,14.70
2018-03-15T05:40:29.633Z,15.57
2018-03-15T05:42:57.246Z,11.90
2018-03-15T05:45:24.888Z,12.33
2018-03-15T05:47:52.508Z,11.30
2018-03-15T05:50:20.157Z,11.03
2018-03-15T05:52:47.786Z,12.53
2018-03-15T05:55:15.435Z,7.30
2018-03-15T05:57:43.075Z,10.63
2018-03-15T06:00:10.788Z,10.97
2018-03-15T06:02:38.411Z,10.63
2018-03-15T06:05:06.017Z,10.37
2018-03-15T06:07:33.708Z,10.07
2018-03-15T06:10:01.331Z,11.70
2018-03-15T06:12:28.989Z,13.73
2018-03-15T06:14:56.598Z,11.70
2018-03-15T06:17:24.253Z,11.57
2018-03-15T06:19:51.857Z,8.70
2018-03-15T06:22:19.525Z,15.30
2018-03-15T06:24:47.138Z,10.77
2018-03-15T06:27:14.784Z,10.33
2018-03-15T06:29:42.398Z,8.53
2018-03-15T06:32:10.078Z,8.50
2018-03-15T06:34:37.720Z,9.07
2018-03-15T06:37:05.381Z,8.53
2018-03-15T06:39:33.014Z,10.50
2018-03-15T06:42:00.698Z,7.90
2018-03-15T06:44:28.295Z,8.77
2018-03-15T06:46:55.948Z,9.53
2018-03-15T06:49:23.708Z,12.60
2018-03-15T06:51:51.358Z,6.90
2018-03-15T06:54:18.973Z,13.10
2018-03-15T06:56:46.620Z,12.17
2018-03-15T06:59:14.237Z,11.67
2018-03-15T07:01:41.919Z,11.57
2018-03-15T07:04:09.531Z,11.77
2018-03-15T07:06:37.176Z,12.07
2018-03-15T07:09:04.917Z,9.47
2018-03-15T07:11:32.566Z,10.50
2018-03-15T07:14:00.183Z,15.50
2018-03-15T07:16:27.847Z,10.37
2018-03-15T07:18:55.457Z,15.60
2018-03-15T07:21:23.111Z,12.33
2018-03-15T07:23:50.724Z,9.73
2018-03-15T07:26:18.386Z,15.97
2018-03-15T07:28:46.001Z,12.10
2018-03-15T07:31:13.652Z,16.73
2018-03-15T07:33:41.567Z,18.00
2018-03-15T07:36:09.271Z,16.20
2018-03-15T07:38:36.888Z,12.07
2018-03-15T07:41:04.532Z,15.60
2018-03-15T07:43:32.193Z,13.00
2018-03-15T07:45:59.848Z,13.63
2018-03-15T07:48:27.455Z,10.30
2018-03-15T07:50:55.109Z,11.40
2018-03-15T07:53:22.717Z,11.53
2018-03-15T07:55:50.401Z,11.60
2018-03-15T07:58:18.013Z,10.23
2018-03-15T08:00:45.666Z,11.00
2018-03-15T08:03:13.282Z,7.90
2018-03-15T08:05:40.934Z,12.47
2018-03-15T08:08:08.551Z,16.00
2018-03-15T08:10:36.164Z,13.20
2018-03-15T08:13:03.805Z,8.50
2018-03-15T08:15:31.416Z,12.00
2018-03-15T08:17:59.074Z,9.50
2018-03-15T08:20:26.677Z,14.00
2018-03-15T08:22:54.335Z,18.13
2018-03-15T08:25:21.947Z,13.43
2018-03-15T08:27:49.596Z,16.20
2018-03-15T08:30:17.232Z,10.53
2018-03-15T08:32:44.890Z,10.90
2018-03-15T08:35:12.553Z,8.63
2018-03-15T08:37:40.226Z,10.10
2018-03-15T08:40:07.832Z,11.20
2018-03-15T08:42:35.493Z,13.30
2018-03-15T08:45:03.119Z,10.07
2018-03-15T08:47:30.788Z,13.00
2018-03-15T08:49:58.409Z,12.40
2018-03-15T08:52:26.069Z,14.13
2018-03-15T08:54:53.676Z,12.73
2018-03-15T08:57:21.389Z,7.30
2018-03-15T08:59:49.073Z,13.60
2018-03-15T09:02:16.736Z,17.50
2018-03-15T09:04:44.495Z,17.87
2018-03-15T09:07:12.136Z,12.13
2018-03-15T09:09:39.755Z,14.23
2018-03-15T09:12:07.413Z,13.17
2018-03-15T09:14:35.072Z,14.83
2018-03-15T09:17:02.783Z,19.40
2018-03-15T09:19:30.370Z,9.40
2018-03-15T09:21:58.033Z,18.73
2018-03-15T09:24:25.649Z,12.00
2018-03-15T09:26:53.308Z,13.20
2018-03-15T09:29:20.949Z,11.80
2018-03-15T09:31:48.601Z,9.70
2018-03-15T09:34:16.304Z,10.10
2018-03-15T09:36:43.962Z,11.47
2018-03-15T09:39:11.593Z,9.50
2018-03-15T09:41:39.284Z,12.33
2018-03-15T09:44:06.913Z,10.43
2018-03-15T09:46:34.607Z,9.57
2018-03-15T09:49:02.232Z,8.07
2018-03-15T09:51:29.900Z,10.00
2018-03-15T09:53:57.524Z,11.87
2018-03-15T09:56:25.478Z,10.07
2018-03-15T09:58:53.093Z,15.80
2018-03-15T10:01:20.922Z,11.67
2018-03-15T10:03:48.548Z,15.27
2018-03-15T10:06:16.242Z,17.00
2018-03-15T10:08:43.882Z,13.33
2018-03-15T10:11:11.621Z,16.20
2018-03-15T10:13:39.305Z,13.70
2018-03-15T10:16:06.985Z,13.50
2018-03-15T10:18:34.682Z,13.67
2018-03-15T10:21:02.313Z,10.80
2018-03-15T10:23:29.984Z,8.27
2018-03-15T10:25:57.637Z,9.80
2018-03-15T10:28:25.377Z,11.60
2018-03-15T10:30:53.012Z,9.57
2018-03-15T10:33:26.261Z,11.93
2018-03-15T10:35:54.000Z,9.23
2018-03-15T10:38:21.692Z,10.60
2018-03-15T10:40:49.319Z,10.87
2018-03-15T10:43:16.992Z,11.10
2018-03-15T10:45:44.632Z,9.53
2018-03-15T10:48:12.304Z,13.80
2018-03-15T10:50:39.947Z,12.10
2018-03-15T10:53:07.632Z,8.30
2018-03-15T10:55:35.274Z,11.60
2018-03-15T10:58:02.949Z,8.50
2018-03-15T11:00:36.085Z,10.03
2018-03-15T11:03:09.389Z,8.87
2018-03-15T11:05:42.534Z,14.53
2018-03-15T11:08:25.760Z,6.67
2018-03-15T11:10:53.408Z,7.07
2018-03-15T11:13:21.100Z,7.43
2018-03-15T11:15:48.744Z,9.93
2018-03-15T11:18:16.419Z,6.13
2018-03-15T11:20:44.080Z,10.17
2018-03-15T11:23:11.772Z,8.10
2018-03-15T11:25:39.419Z,10.63
2018-03-15T11:28:07.103Z,9.70
2018-03-15T11:30:34.732Z,6.10
2018-03-15T11:33:02.424Z,10.53
2018-03-15T11:35:30.057Z,6.73
2018-03-15T11:37:57.780Z,7.60
2018-03-15T11:40:25.401Z,7.17
2018-03-15T11:42:53.133Z,8.27
2018-03-15T11:45:20.773Z,7.37
2018-03-15T11:47:48.453Z,7.23
2018-03-15T11:50:16.092Z,8.60
2018-03-15T11:52:43.761Z,6.50
2018-03-15T11:55:11.415Z,6.90
2018-03-15T11:57:39.092Z,10.37
2018-03-15T12:00:06.747Z,6.90
2018-03-15T12:02:34.431Z,8.47
2018-03-15T12:05:02.073Z,5.33
2018-03-15T12:07:29.749Z,6.30
2018-03-15T12:09:57.402Z,6.50
2018-03-15T12:12:25.069Z,4.83
2018-03-15T12:14:52.691Z,7.37
2018-03-15T12:17:20.372Z,6.57
2018-03-15T12:19:48.016Z,8.20
2018-03-15T12:22:15.669Z,6.67
2018-03-15T12:24:43.278Z,6.83
2018-03-15T12:27:10.989Z,6.40
2018-03-15T12:29:38.605Z,7.07
2018-03-15T12:32:06.260Z,5.50
2018-03-15T12:34:33.871Z,5.20
2018-03-15T12:37:01.524Z,5.23
2018-03-15T12:39:29.140Z,4.93
2018-03-15T12:41:56.779Z,5.13
2018-03-15T12:44:24.390Z,6.03
2018-03-15T12:46:52.097Z,6.63
2018-03-15T12:49:19.713Z,5.60
2018-03-15T12:51:47.337Z,7.70
2018-03-15T12:54:15.025Z,7.73
2018-03-15T12:56:42.640Z,5.90
2018-03-15T12:59:10.293Z,6.20
2018-03-15T13:01:37.936Z,4.87
2018-03-15T13:04:05.580Z,5.00
2018-03-15T13:06:33.185Z,7.73
2018-03-15T13:09:00.861Z,6.60
2018-03-15T13:11:28.484Z,7.57
2018-03-15T13:13:56.157Z,5.90
2018-03-15T13:16:23.776Z,5.50
2018-03-15T13:18:51.425Z,4.13
2018-03-15T13:21:19.048Z,4.50
2018-03-15T13:23:46.693Z,5.67
2018-03-15T13:26:14.301Z,4.97
2018-03-15T13:28:41.955Z,4.50
2018-03-15T13:31:09.568Z,6.73
2018-03-15T13:33:37.229Z,5.70
2018-03-15T13:36:04.922Z,7.07
2018-03-15T13:38:32.572Z,7.33
2018-03-15T13:41:00.183Z,5.27
2018-03-15T13:43:27.838Z,5.90
2018-03-15T13:45:55.448Z,6.00
2018-03-15T13:48:23.088Z,6.00
2018-03-15T13:50:50.688Z,6.27
2018-03-15T13:53:18.341Z,6.30
2018-03-15T13:55:45.944Z,5.60
2018-03-15T13:58:13.591Z,7.17
2018-03-15T14:00:41.205Z,7.00
2018-03-15T14:03:08.865Z,5.50
2018-03-15T14:05:36.478Z,4.30
2018-03-15T14:08:04.145Z,5.67
2018-03-15T14:10:31.778Z,6.47
2018-03-15T14:12:59.429Z,6.70
2018-03-15T14:15:27.068Z,5.67
2018-03-15T14:17:54.712Z,5.97
2018-03-15T14:20:22.371Z,5.80
2018-03-15T14:22:50.012Z,6.60
2018-03-15T14:25:17.634Z,5.43
2018-03-15T14:27:45.282Z,5.50
2018-03-15T14:30:12.889Z,5.00
2018-03-15T14:32:40.542Z,4.53
2018-03-15T14:35:08.157Z,5.13
2018-03-15T14:37:35.818Z,4.20
2018-03-15T14:40:03.439Z,6.07
2018-03-15T14:42:31.101Z,6.27
2018-03-15T14:44:58.701Z,5.27
2018-03-15T14:47:26.340Z,5.40
2018-03-15T14:49:53.955Z,5.37
2018-03-15T14:52:21.571Z,5.83
2018-03-15T14:54:49.224Z,5.63
2018-03-15T14:57:16.837Z,5.67
2018-03-15T14:59:44.504Z,5.30
2018-03-15T15:02:12.112Z,4.27
2018-03-15T15:04:39.765Z,3.33
2018-03-15T15:07:07.375Z,5.77
2018-03-15T15:09:35.037Z,2.90
2018-03-15T15:12:02.648Z,5.13
2018-03-15T15:14:30.333Z,4.70
2018-03-15T15:16:57.958Z,5.40
2018-03-15T15:19:25.619Z,6.97
2018-03-15T15:21:53.284Z,4.23
2018-03-15T15:24:20.937Z,4.43
2018-03-15T15:26:48.545Z,5.33
2018-03-15T15:29:16.196Z,6.70
2018-03-15T15:31:43.840Z,4.83
2018-03-15T15:34:11.498Z,3.67
2018-03-15T15:36:39.106Z,5.43
2018-03-15T15:39:06.761Z,3.80
2018-03-15T15:41:34.387Z,3.87
2018-03-15T15:44:02.122Z,5.60
2018-03-15T15:46:29.745Z,3.70
2018-03-15T15:48:57.418Z,6.97
2018-03-15T15:51:25.028Z,5.17
2018-03-15T15:53:52.725Z,4.67
2018-03-15T15:56:20.345Z,3.60
2018-03-15T15:58:48.032Z,5.60
2018-03-15T16:01:15.762Z,5.47
2018-03-15T16:03:43.438Z,6.50
2018-03-15T16:06:11.098Z,6.17
2018-03-15T16:08:38.773Z,4.53
2018-03-15T16:11:06.383Z,5.30
2018-03-15T16:13:34.072Z,5.70
2018-03-15T16:16:01.722Z,5.70
2018-03-15T16:18:29.400Z,5.70
2018-03-15T16:20:57.012Z,7.80
2018-03-15T16:23:24.656Z,7.47
2018-03-15T16:25:52.261Z,8.03
2018-03-15T16:28:19.904Z,6.13
2018-03-15T16:30:48.048Z,6.50
2018-03-15T16:33:19.105Z,6.03
2018-03-15T16:35:46.720Z,6.73
2018-03-15T16:38:14.367Z,7.00
2018-03-15T16:40:41.997Z,7.87
2018-03-15T16:43:09.720Z,5.80
2018-03-15T16:45:37.311Z,5.27
2018-03-15T16:48:04.992Z,7.20
2018-03-15T16:50:32.598Z,6.70
2018-03-15T16:53:00.260Z,6.67
2018-03-15T16:55:27.917Z,5.63
2018-03-15T16:57:55.582Z,7.20
2018-03-15T17:00:23.186Z,4.53
2018-03-15T17:02:50.797Z,5.30
2018-03-15T17:05:18.452Z,6.37
2018-03-15T17:07:46.297Z,6.20
2018-03-15T17:10:13.976Z,6.20
2018-03-15T17:12:41.598Z,7.17
2018-03-15T17:15:09.357Z,6.80
2018-03-15T17:17:36.970Z,6.30
2018-03-15T17:20:04.628Z,6.30
2018-03-15T17:22:32.239Z,6.57
2018-03-15T17:25:00.226Z,6.03
2018-03-15T17:27:27.841Z,7.20
2018-03-15T17:29:55.487Z,5.20
2018-03-15T17:32:23.115Z,7.40
2018-03-15T17:34:50.775Z,6.33
2018-03-15T17:37:18.408Z,6.10
2018-03-15T17:39:46.062Z,4.80
2018-03-15T17:42:13.679Z,6.10
2018-03-15T17:44:41.330Z,6.10
2018-03-15T17:47:08.960Z,6.13
2018-03-15T17:49:36.634Z,8.10
2018-03-15T17:52:04.525Z,5.10
2018-03-15T17:54:32.196Z,6.10
2018-03-15T17:56:59.827Z,6.57
2018-03-15T17:59:27.488Z,7.17
2018-03-15T18:01:55.116Z,5.83
2018-03-15T18:04:22.788Z,5.10
2018-03-15T18:06:51.015Z,6.33
2018-03-15T18:09:18.667Z,6.33
2018-03-15T18:11:46.320Z,7.20
2018-03-15T18:14:14.076Z,6.50
2018-03-15T18:16:41.694Z,7.83
2018-03-15T18:19:09.344Z,7.57
2018-03-15T18:21:36.966Z,5.40
2018-03-15T18:24:04.657Z,7.30
2018-03-15T18:26:32.272Z,7.70
2018-03-15T18:28:59.917Z,5.10
2018-03-15T18:31:27.533Z,5.17
2018-03-15T18:33:55.250Z,5.37
2018-03-15T18:36:22.849Z,6.40
2018-03-15T18:38:50.513Z,5.87
2018-03-15T18:41:18.117Z,7.50
2018-03-15T18:43:45.764Z,6.10
2018-03-15T18:46:13.399Z,6.33
2018-03-15T18:48:41.040Z,6.50
2018-03-15T18:51:08.823Z,6.40
2018-03-15T18:53:36.531Z,6.20
2018-03-15T18:56:04.148Z,7.07
2018-03-15T18:58:31.793Z,7.63
2018-03-15T19:00:59.427Z,7.73
2018-03-15T19:03:27.108Z,8.27
2018-03-15T19:05:54.723Z,8.47
2018-03-15T19:08:22.332Z,8.50
2018-03-15T19:10:49.986Z,7.87
2018-03-15T19:13:17.587Z,7.87
2018-03-15T19:15:45.239Z,7.70
2018-03-15T19:18:12.845Z,7.73
2018-03-15T19:20:40.504Z,7.53
2018-03-15T19:23:08.166Z,6.90
2018-03-15T19:25:35.831Z,6.63
2018-03-15T19:28:03.470Z,6.67
2018-03-15T19:30:31.167Z,6.90
2018-03-15T19:32:58.775Z,6.17
2018-03-15T19:35:26.488Z,6.60
2018-03-15T19:37:54.106Z,7.00
2018-03-15T19:40:21.772Z,8.33
2018-03-15T19:42:49.406Z,7.57
2018-03-15T19:45:17.059Z,6.33
2018-03-15T19:47:44.668Z,7.50
2018-03-15T19:50:12.316Z,7.23
2018-03-15T19:52:39.964Z,7.50
2018-03-15T19:55:07.629Z,8.30
2018-03-15T19:57:35.257Z,7.90
2018-03-15T20:00:02.928Z,7.93
2018-03-15T20:02:30.585Z,8.60
2018-03-15T20:04:58.219Z,9.33
2018-03-15T20:09:59.825Z,9.60
2018-03-15T20:12:27.444Z,9.53
2018-03-15T20:14:55.096Z,9.30
2018-03-15T20:17:22.739Z,9.40
2018-03-15T20:19:50.408Z,8.50
2018-03-15T20:25:20.505Z,10.07
2018-03-15T20:27:53.614Z,9.83
2018-03-15T20:30:21.309Z,10.20
2018-03-15T20:32:54.651Z,8.70
2018-03-15T20:35:22.305Z,9.27
2018-03-15T20:37:49.929Z,9.80
2018-03-15T20:40:23.038Z,9.27
2018-03-15T20:42:50.700Z,10.47
2018-03-15T20:45:23.903Z,9.60
2018-03-15T20:50:56.878Z,11.77
2018-03-15T20:53:24.496Z,13.20
2018-03-15T20:55:52.165Z,66.57
2018-03-15T20:58:19.789Z,31.87
2018-03-15T21:00:47.460Z,25.50
2018-03-15T21:03:15.088Z,14.37
2018-03-15T21:05:42.736Z,15.07
2018-03-15T21:08:10.348Z,12.23
2018-03-15T21:10:38.034Z,10.60
2018-03-15T21:13:05.654Z,9.90
2018-03-15T21:15:33.318Z,9.23
2018-03-15T21:18:01.168Z,9.27
2018-03-15T21:20:28.852Z,10.03
2018-03-15T21:22:56.712Z,10.00
2018-03-15T21:25:24.368Z,9.60
2018-03-15T21:27:52.075Z,9.73
2018-03-15T21:30:19.741Z,10.00
2018-03-15T21:32:47.353Z,10.03
2018-03-15T21:35:15.060Z,9.97
2018-03-15T21:37:42.700Z,9.97
2018-03-15T21:40:10.349Z,10.53
2018-03-15T21:42:37.992Z,10.20
2018-03-15T21:45:05.644Z,8.63
2018-03-15T21:47:33.278Z,10.13
2018-03-15T21:50:01.032Z,10.00
2018-03-15T21:52:28.675Z,11.23
2018-03-15T21:54:56.349Z,11.33
2018-03-15T21:57:23.969Z,11.60
2018-03-15T21:59:51.630Z,10.10
2018-03-15T22:02:19.332Z,10.77
2018-03-15T22:04:47.191Z,13.00
2018-03-15T22:07:15.030Z,12.20
2018-03-15T22:09:42.722Z,11.80
2018-03-15T22:12:10.438Z,12.60
2018-03-15T22:14:38.141Z,13.10
2018-03-15T22:17:05.971Z,13.43
2018-03-15T22:19:33.773Z,12.70
2018-03-15T22:22:01.638Z,11.20
2018-03-15T22:24:29.317Z,13.10
2018-03-15T22:26:57.047Z,12.00
2018-03-15T22:29:24.660Z,15.63
2018-03-15T22:31:52.319Z,16.00
2018-03-15T22:34:19.928Z,13.70
2018-03-15T22:36:47.623Z,14.30
2018-03-15T22:39:15.248Z,13.80
2018-03-15T22:41:42.899Z,14.80
2018-03-15T22:44:10.505Z,16.17
2018-03-15T22:46:38.168Z,14.27
2018-03-15T22:49:05.787Z,18.93
2018-03-15T22:51:33.438Z,19.37
2018-03-15T22:54:01.045Z,19.97
2018-03-15T22:56:28.729Z,20.30
2018-03-15T22:58:56.362Z,20.73
2018-03-15T23:01:24.037Z,18.10
2018-03-15T23:03:51.637Z,17.83
2018-03-15T23:06:19.280Z,17.77
2018-03-15T23:08:46.902Z,16.60
2018-03-15T23:11:14.552Z,18.00
2018-03-15T23:13:42.240Z,17.17
2018-03-15T23:16:09.876Z,18.50
2018-03-15T23:18:37.526Z,19.93
2018-03-15T23:21:05.175Z,18.60
2018-03-15T23:23:32.802Z,18.83
2018-03-15T23:26:00.455Z,19.77
2018-03-15T23:28:28.079Z,19.80
2018-03-15T23:30:55.747Z,19.13
2018-03-15T23:33:23.356Z,20.80
2018-03-15T23:35:51.019Z,19.20
2018-03-15T23:38:18.633Z,19.07
2018-03-15T23:40:46.292Z,21.47
2018-03-15T23:43:13.925Z,21.30
2018-03-15T23:45:41.586Z,20.67
2018-03-15T23:48:09.226Z,21.13
2018-03-15T23:50:36.886Z,20.37
2018-03-15T23:53:04.513Z,21.27
2018-03-15T23:55:32.168Z,21.20
2018-03-15T23:57:59.776Z,21.90
